createdAt,value
2022-08-23T00:03:59.943Z,100242.22
2022-08-23T00:09:23.704Z,100251.75
2022-08-23T00:14:49.305Z,100253.66
2022-08-23T00:20:14.962Z,100238.16
2022-08-23T00:25:36.821Z,100241.69
2022-08-23T00:30:59.589Z,100235.66
2022-08-23T00:36:21.405Z,100241.28
2022-08-23T00:41:44.201Z,100254.59
2022-08-23T00:47:07.774Z,100260.00
2022-08-23T00:52:38.070Z,100258.34
2022-08-23T00:58:01.541Z,100268.88
2022-08-23T01:03:25.947Z,100260.13
2022-08-23T01:08:54.703Z,100281.16
2022-08-23T01:14:19.654Z,100311.97
2022-08-23T01:19:48.595Z,100324.63
2022-08-23T01:25:14.244Z,100357.50
2022-08-23T01:30:36.341Z,100322.09
2022-08-23T01:36:00.991Z,100333.03
2022-08-23T01:41:26.017Z,100325.50
2022-08-23T01:46:47.871Z,100301.59
2022-08-23T01:52:09.699Z,100309.47
2022-08-23T01:57:33.797Z,100344.69
2022-08-23T02:02:55.944Z,100350.84
2022-08-23T02:08:17.805Z,100364.56
2022-08-23T02:13:39.637Z,100357.16
2022-08-23T02:19:03.028Z,100335.25
2022-08-23T02:24:25.775Z,100306.50
2022-08-23T02:29:47.717Z,100309.44
2022-08-23T02:35:09.624Z,100313.84
2022-08-23T02:40:31.468Z,100311.88
2022-08-23T02:45:53.300Z,100283.47
2022-08-23T02:51:15.830Z,100295.13
2022-08-23T02:56:37.706Z,100299.63
2022-08-23T03:01:59.604Z,100283.50
2022-08-23T03:07:21.488Z,100265.84
2022-08-23T03:12:43.320Z,100263.88
2022-08-23T03:18:05.982Z,100265.97
2022-08-23T03:23:28.444Z,100266.50
2022-08-23T03:28:50.346Z,100273.28
2022-08-23T03:34:12.393Z,100259.22
2022-08-23T03:39:34.307Z,100263.75
2022-08-23T03:44:56.931Z,100258.94
2022-08-23T03:50:24.483Z,100243.78
2022-08-23T03:55:46.707Z,100254.94
2022-08-23T04:01:08.525Z,100250.38
2022-08-23T04:06:30.352Z,100247.75
2022-08-23T04:11:52.155Z,100242.00
2022-08-23T04:17:15.109Z,100251.25
2022-08-23T04:22:37.011Z,100246.72
2022-08-23T04:27:59.659Z,100263.16
2022-08-23T04:33:22.252Z,100271.38
2022-08-23T04:38:44.092Z,100277.56
2022-08-23T04:44:05.985Z,100285.03
2022-08-23T04:49:27.776Z,100302.00
2022-08-23T04:54:49.649Z,100297.81
2022-08-23T05:00:13.059Z,100300.44
2022-08-23T05:05:34.880Z,100301.09
2022-08-23T05:11:00.429Z,100304.59
2022-08-23T05:16:22.315Z,100329.03
2022-08-23T05:21:44.363Z,100314.19
2022-08-23T05:27:07.877Z,100317.34
2022-08-23T05:32:33.650Z,100327.28
2022-08-23T05:37:55.714Z,100328.53
2022-08-23T05:43:17.895Z,100319.28
2022-08-23T05:48:43.241Z,100323.56
2022-08-23T05:54:08.010Z,100328.69
2022-08-23T05:59:30.798Z,100339.03
2022-08-23T06:04:57.159Z,100353.25
2022-08-23T06:10:19.637Z,100359.16
2022-08-23T06:15:44.920Z,100367.16
2022-08-23T06:21:09.197Z,100359.00
2022-08-23T06:26:34.516Z,100357.00
2022-08-23T06:31:56.348Z,100373.81
2022-08-23T06:37:18.252Z,100373.31
2022-08-23T06:42:40.580Z,100375.25
2022-08-23T06:48:02.715Z,100379.63
2022-08-23T06:53:24.712Z,100383.94
2022-08-23T06:58:46.534Z,100393.34
2022-08-23T07:04:11.084Z,100384.25
2022-08-23T07:09:33.526Z,100379.50
2022-08-23T07:14:55.355Z,100365.81
2022-08-23T07:20:17.375Z,100372.56
2022-08-23T07:25:42.251Z,100379.75
2022-08-23T07:31:12.377Z,100371.09
2022-08-23T07:36:37.857Z,100378.94
2022-08-23T07:42:01.359Z,100379.72
2022-08-23T07:47:48.249Z,100375.47
2022-08-23T07:53:11.984Z,100377.81
2022-08-23T07:58:34.147Z,100382.22
2022-08-23T08:03:58.720Z,100388.13
2022-08-23T08:09:20.584Z,100382.63
2022-08-23T08:14:42.413Z,100380.19
2022-08-23T08:20:04.985Z,100390.34
2022-08-23T08:25:26.924Z,100380.56
2022-08-23T08:30:48.726Z,100382.91
2022-08-23T08:36:36.177Z,100398.66
2022-08-23T08:42:05.276Z,100382.19
2022-08-23T08:47:40.852Z,100385.50
2022-08-23T08:53:13.069Z,100381.16
2022-08-23T08:58:49.220Z,100386.38
2022-08-23T09:04:11.502Z,100392.09
2022-08-23T09:10:05.195Z,100381.47
2022-08-23T09:15:40.497Z,100382.03
2022-08-23T09:21:05.520Z,100377.31
2022-08-23T09:26:30.845Z,100383.31
2022-08-23T09:31:55.097Z,100385.75
2022-08-23T09:37:18.596Z,100379.25
2022-08-23T09:42:42.051Z,100375.91
2022-08-23T09:48:05.711Z,100376.63
2022-08-23T09:53:27.564Z,100372.97
2022-08-23T09:58:50.073Z,100373.91
2022-08-23T10:04:21.542Z,100380.09
2022-08-23T10:09:43.393Z,100365.91
2022-08-23T10:15:05.672Z,100375.22
2022-08-23T10:20:50.807Z,100368.84
2022-08-23T10:26:25.143Z,100368.97
2022-08-23T10:32:02.373Z,100371.34
2022-08-23T10:37:33.143Z,100377.94
2022-08-23T10:43:19.785Z,100346.69
2022-08-23T10:48:52.415Z,100341.09
2022-08-23T10:54:30.817Z,100356.06
2022-08-23T10:59:53.111Z,100343.41
2022-08-23T11:05:26.356Z,100349.78
2022-08-23T11:10:56.029Z,100343.91
2022-08-23T11:16:30.554Z,100348.09
2022-08-23T11:22:14.287Z,100346.41
2022-08-23T11:27:41.524Z,100350.84
2022-08-23T11:33:34.419Z,100343.19
2022-08-23T11:38:56.190Z,100350.28
2022-08-23T11:44:24.106Z,100352.03
2022-08-23T11:50:06.087Z,100348.22
2022-08-23T11:55:49.226Z,100351.91
2022-08-23T12:01:13.888Z,100351.25
2022-08-23T12:06:51.267Z,100335.28
2022-08-23T12:12:13.231Z,100356.38
2022-08-23T12:17:35.005Z,100356.47
2022-08-23T12:23:15.548Z,100356.50
2022-08-23T12:28:43.728Z,100354.22
2022-08-23T12:34:20.874Z,100348.41
2022-08-23T12:39:52.751Z,100339.56
2022-08-23T12:45:22.916Z,100332.53
2022-08-23T12:50:51.686Z,100328.03
2022-08-23T12:56:31.561Z,100324.34
2022-08-23T13:01:54.579Z,100305.44
2022-08-23T13:07:22.420Z,100313.28
2022-08-23T13:12:44.763Z,100317.00
2022-08-23T13:18:06.869Z,100311.97
2022-08-23T13:23:28.995Z,100311.03
2022-08-23T13:29:06.371Z,100297.19
2022-08-23T13:34:47.198Z,100289.16
2022-08-23T13:40:18.435Z,100276.16
2022-08-23T13:45:51.268Z,100285.03
2022-08-23T13:51:28.404Z,100291.91
2022-08-23T13:56:53.809Z,100312.44
2022-08-23T14:02:16.191Z,100305.38
2022-08-23T14:07:38.024Z,100311.13
2022-08-23T14:13:00.344Z,100319.47
2022-08-23T14:18:22.308Z,100318.50
2022-08-23T14:23:44.146Z,100311.44
2022-08-23T14:29:05.942Z,100313.13
2022-08-23T14:34:29.478Z,100310.31
2022-08-23T14:39:51.526Z,100314.97
2022-08-23T14:45:15.648Z,100319.47
2022-08-23T14:50:38.671Z,100328.97
2022-08-23T14:56:20.264Z,100338.84
2022-08-23T15:01:42.583Z,100340.50
2022-08-23T15:07:20.979Z,100344.00
2022-08-23T15:13:12.918Z,100348.53
2022-08-23T15:18:25.434Z,100333.22
2022-08-23T15:23:47.477Z,100332.53
2022-08-23T15:29:09.278Z,100348.34
2022-08-23T15:34:33.347Z,100344.03
2022-08-23T15:39:57.521Z,100350.34
2022-08-23T15:45:19.529Z,100342.72
2022-08-23T15:50:44.656Z,100353.66
2022-08-23T15:56:13.231Z,100348.69
2022-08-23T16:01:35.108Z,100365.97
2022-08-23T16:06:58.209Z,100382.59
2022-08-23T16:12:20.070Z,100377.56
2022-08-23T16:17:41.982Z,100375.91
2022-08-23T16:23:04.200Z,100398.03
2022-08-23T16:28:26.146Z,100384.22
2022-08-23T16:33:48.299Z,100396.72
2022-08-23T16:39:11.265Z,100405.56
2022-08-23T16:44:34.324Z,100421.06
2022-08-23T16:49:56.179Z,100432.13
2022-08-23T16:55:18.138Z,100431.78
2022-08-23T17:00:40.468Z,100433.56
2022-08-23T17:06:02.311Z,100439.28
2022-08-23T17:11:24.187Z,100452.34
2022-08-23T17:16:52.032Z,100461.50
2022-08-23T17:22:13.969Z,100465.53
2022-08-23T17:27:37.048Z,100463.88
2022-08-23T17:32:59.349Z,100475.91
2022-08-23T17:38:21.223Z,100486.56
2022-08-23T17:43:43.022Z,100488.53
2022-08-23T17:49:06.573Z,100498.00
2022-08-23T17:54:28.408Z,100498.28
2022-08-23T17:59:50.276Z,100492.59
2022-08-23T18:05:12.509Z,100484.53
2022-08-23T18:10:34.882Z,100491.50
2022-08-23T18:15:56.751Z,100504.03
2022-08-23T18:21:18.592Z,100519.38
2022-08-23T18:26:42.997Z,100525.88
2022-08-23T18:32:06.964Z,100534.47
2022-08-23T18:37:28.904Z,100540.00
2022-08-23T18:42:50.973Z,100535.56
2022-08-23T18:48:12.981Z,100549.53
2022-08-23T18:53:35.465Z,100543.81
2022-08-23T18:58:57.295Z,100539.56
2022-08-23T19:04:19.253Z,100550.88
2022-08-23T19:09:41.295Z,100559.69
2022-08-23T19:15:04.043Z,100557.03
2022-08-23T19:20:25.934Z,100567.22
2022-08-23T19:25:48.389Z,100557.38
2022-08-23T19:31:10.352Z,100565.78
2022-08-23T19:36:46.249Z,100556.22
2022-08-23T19:42:11.699Z,100553.25
2022-08-23T19:47:34.303Z,100539.09
2022-08-23T19:52:58.528Z,100552.84
2022-08-23T19:58:20.374Z,100552.66
2022-08-23T20:03:42.219Z,100569.72
2022-08-23T20:09:05.684Z,100569.72
2022-08-23T20:14:29.774Z,100566.75
2022-08-23T20:19:51.599Z,100563.41
2022-08-23T20:25:13.607Z,100568.69
2022-08-23T20:30:36.081Z,100568.56
2022-08-23T20:35:57.871Z,100565.59
2022-08-23T20:41:20.380Z,100559.75
2022-08-23T20:46:42.711Z,100552.34
2022-08-23T20:52:05.922Z,100562.28
2022-08-23T20:57:28.556Z,100561.34
2022-08-23T21:02:53.861Z,100564.31
2022-08-23T21:08:16.570Z,100555.69
2022-08-23T21:13:38.998Z,100557.53
2022-08-23T21:19:01.386Z,100544.34
2022-08-23T21:24:23.226Z,100536.59
2022-08-23T21:29:45.044Z,100542.00
2022-08-23T21:35:07.394Z,100532.28
2022-08-23T21:40:30.462Z,100531.81
2022-08-23T21:45:52.389Z,100540.81
2022-08-23T21:51:14.325Z,100538.41
2022-08-23T21:56:37.271Z,100538.75
2022-08-23T22:01:59.107Z,100550.88
2022-08-23T22:07:21.091Z,100546.97
2022-08-23T22:12:43.138Z,100545.59
2022-08-23T22:18:05.678Z,100548.06
2022-08-23T22:23:29.561Z,100541.81
2022-08-23T22:28:51.357Z,100541.94
2022-08-23T22:34:13.235Z,100545.31
2022-08-23T22:39:35.127Z,100542.56
2022-08-23T22:44:56.954Z,100541.13
2022-08-23T22:50:18.831Z,100538.56
2022-08-23T22:55:41.047Z,100554.22
2022-08-23T23:01:05.710Z,100557.53
2022-08-23T23:06:33.104Z,100556.69
2022-08-23T23:11:54.998Z,100568.16
2022-08-23T23:17:16.802Z,100561.09
2022-08-23T23:22:38.653Z,100558.47
2022-08-23T23:28:01.110Z,100553.09
2022-08-23T23:39:51.382Z,100566.94
2022-08-23T23:45:13.926Z,100567.88
2022-08-23T23:50:39.555Z,100569.78
2022-08-23T23:56:09.773Z,100563.31
